Dukedom, Tennessee
Current Conditions -  °F | °C
As of 12:15 PM on Monday 26 Jan 2015 (Local Time) from KUCY Reporting Station
Overcast Overcast  
Wind Chill: 29°   Ceiling: 2500
Heat Index: 36°   Visibility: 10mi
Dew Point: 28°   Wind: 9mph
Humidity: 75%   Direction: 290°WNW
Pressure: 30.04"   Gusts: NA
Location:  36.5°N, 88.71°W
Report Text: KUCY 261815Z AUTO 29008KT 10SM OVC025 02/M02 A3004 RMK
Loading
Personal Weather Stations






























Interactive Weather Map New forecast layout! Learn more

10-Day Weather Forecast

Advertisements
Track Severe Weather on mobile